Time;durP1;ratioP1;P1;durP2;ratioP2;P2;SDS_P1;SDS_P2;PMS_P1;PMS_P2;Temp;Humidity;BMP_temperature;BMP_pressure;BME280_temperature;BME280_humidity;BME280_pressure;Samples;Min_cycle;Max_cycle;Signal;HPM_P1;HPM_P2
2023/10/26 00:04:18;;;;;;;3.53;1.88;;;;;;;-2.68;74.07;101311.56;10253771;29;20143;-87
2023/10/26 00:09:20;;;;;;;1.77;0.90;;;;;;;-2.72;74.55;101314.78;10237521;29;20395;-86
2023/10/26 00:14:22;;;;;;;3.25;1.40;;;;;;;-2.77;74.08;101313.47;10251068;29;20055;-85
2023/10/26 00:19:24;;;;;;;1.92;1.30;;;;;;;-2.88;75.20;101303.13;10236055;29;20473;-86
2023/10/26 00:24:27;;;;;;;3.88;1.70;;;;;;;-2.96;75.61;101300.47;10236942;29;20055;-85
2023/10/26 00:29:29;;;;;;;3.22;1.30;;;;;;;-3.03;75.50;101302.19;10256635;29;20078;-86
2023/10/26 00:34:35;;;;;;;4.30;1.48;;;;;;;-3.04;75.61;101297.84;10256676;29;20035;-86
2023/10/26 00:39:40;;;;;;;;;;;;;;;-3.07;75.22;101292.84;10253387;29;20051;-85
2023/10/26 00:44:46;;;;;;;2.30;1.38;;;;;;;-3.12;75.23;101287.16;10233795;29;19957;-87
2023/10/26 00:49:50;;;;;;;2.97;1.67;;;;;;;-3.11;74.88;101283.47;10228041;29;20075;-86
2023/10/26 00:54:52;;;;;;;2.13;1.55;;;;;;;-3.03;74.53;101278.88;10245568;29;20047;-86
2023/10/26 00:59:58;;;;;;;2.78;1.10;;;;;;;-3.08;74.26;101275.88;10228947;29;20038;-86
2023/10/26 01:05:00;;;;;;;2.45;1.30;;;;;;;-3.10;73.67;101275.22;10244801;29;20124;-86
2023/10/26 01:10:05;;;;;;;2.05;1.33;;;;;;;-3.03;73.25;101280.72;10229838;29;20502;-85
2023/10/26 01:15:07;;;;;;;3.80;1.58;;;;;;;-3.10;72.96;101283.28;10219831;29;20040;-86
2023/10/26 01:20:16;;;;;;;3.63;2.28;;;;;;;-3.15;73.04;101271.38;10233771;29;20410;-85
2023/10/26 01:25:20;;;;;;;3.42;1.67;;;;;;;-3.05;73.17;101282.75;10242394;29;20044;-86
2023/10/26 01:30:22;;;;;;;4.18;2.25;;;;;;;-3.20;72.88;101279.13;10225967;29;20051;-86
2023/10/26 01:35:26;;;;;;;4.95;2.70;;;;;;;-3.21;73.12;101267.56;10224837;29;20051;-86
2023/10/26 01:40:30;;;;;;;5.72;2.85;;;;;;;-3.15;72.25;101272.22;10239130;29;20047;-86
2023/10/26 01:45:33;;;;;;;4.50;2.80;;;;;;;-3.14;72.40;101260.47;10226420;29;20055;-85
2023/10/26 01:50:36;;;;;;;5.03;2.95;;;;;;;-3.10;72.27;101269.03;10229311;29;20418;-85
2023/10/26 01:55:38;;;;;;;3.92;2.42;;;;;;;-3.13;72.03;101247.88;10225704;29;20040;-87
2023/10/26 02:00:42;;;;;;;2.80;1.90;;;;;;;-3.12;71.94;101263.84;10218669;29;20047;-85
2023/10/26 02:05:45;;;;;;;3.28;1.92;;;;;;;-3.05;72.00;101245.16;10216513;29;20046;-85
2023/10/26 02:10:47;;;;;;;2.95;1.70;;;;;;;-3.05;72.08;101266.63;10240942;29;20052;-86
2023/10/26 02:15:49;;;;;;;3.42;1.60;;;;;;;-3.07;72.57;101256.09;10239356;29;20044;-86
2023/10/26 02:20:55;;;;;;;3.78;1.80;;;;;;;-3.08;72.86;101243.69;10227555;29;20391;-86
2023/10/26 02:25:57;;;;;;;2.28;1.50;;;;;;;-3.08;72.70;101251.72;10226648;29;20506;-86
2023/10/26 02:31:01;;;;;;;4.78;1.77;;;;;;;-3.09;72.65;101242.00;10216791;29;20044;-86
2023/10/26 02:36:06;;;;;;;2.47;1.42;;;;;;;-3.13;72.98;101229.09;10208795;29;20035;-86
2023/10/26 02:41:10;;;;;;;2.72;1.50;;;;;;;-3.16;73.20;101241.03;10190307;29;20051;-86
2023/10/26 02:46:12;;;;;;;2.58;1.15;;;;;;;-3.07;72.77;101241.81;10228772;29;20056;-85
2023/10/26 02:51:15;;;;;;;2.03;1.05;;;;;;;-3.24;72.82;101233.03;10213498;29;20509;-86
2023/10/26 02:56:21;;;;;;;0.65;0.65;;;;;;;-3.34;73.39;101222.50;10240663;29;20053;-86
2023/10/26 03:01:34;;;;;;;1.55;0.90;;;;;;;-3.41;73.85;101218.03;10243094;29;20066;-86
2023/10/26 03:06:39;;;;;;;1.85;1.15;;;;;;;-3.40;73.59;101217.84;10223742;29;20039;-86
2023/10/26 03:11:43;;;;;;;2.47;0.95;;;;;;;-3.46;73.19;101226.63;10219779;29;20155;-87
2023/10/26 03:16:48;;;;;;;1.05;0.82;;;;;;;-3.50;73.65;101219.06;10233646;29;20035;-86
2023/10/26 03:21:55;;;;;;;3.30;1.38;;;;;;;-3.51;73.30;101207.50;10253799;29;20111;-86
2023/10/26 03:26:57;;;;;;;4.03;1.60;;;;;;;-3.62;73.45;101204.41;10258362;29;20046;-87
2023/10/26 03:32:03;;;;;;;2.30;1.30;;;;;;;-3.55;73.09;101211.56;10239834;29;20043;-86
2023/10/26 03:37:08;;;;;;;1.48;1.00;;;;;;;-3.54;72.73;101207.84;10251523;29;20040;-87
2023/10/26 03:42:10;;;;;;;2.55;1.13;;;;;;;-3.58;73.05;101205.72;10247432;29;20502;-86
2023/10/26 03:47:13;;;;;;;3.15;1.20;;;;;;;-3.52;72.40;101205.84;10246854;29;20044;-87
2023/10/26 03:52:15;;;;;;;1.67;1.00;;;;;;;-3.44;71.95;101202.28;10210176;29;20051;-86
2023/10/26 03:57:21;;;;;;;1.92;1.00;;;;;;;-3.45;71.89;101198.78;10240601;29;20081;-86
2023/10/26 04:02:24;;;;;;;1.95;1.13;;;;;;;-3.38;71.44;101199.72;10216774;29;20048;-86
2023/10/26 04:07:27;;;;;;;1.75;1.30;;;;;;;-3.52;72.29;101203.16;10236864;29;20177;-86
2023/10/26 04:12:30;;;;;;;1.55;1.27;;;;;;;-3.49;72.32;101189.38;10240301;29;20075;-85
2023/10/26 04:17:32;;;;;;;2.95;1.38;;;;;;;-3.47;72.08;101200.81;10241032;29;20047;-86
2023/10/26 04:22:35;;;;;;;4.43;1.20;;;;;;;-3.57;72.18;101199.34;10247293;29;20399;-85
2023/10/26 04:27:38;;;;;;;2.50;1.35;;;;;;;-3.66;73.05;101201.19;10231462;29;20047;-86
2023/10/26 04:32:42;;;;;;;2.80;1.20;;;;;;;-3.63;73.16;101192.84;10213672;29;20050;-87
2023/10/26 04:37:44;;;;;;;3.00;1.17;;;;;;;-3.63;72.75;101194.69;10228266;29;20399;-87
2023/10/26 04:42:46;;;;;;;5.07;1.30;;;;;;;-3.67;73.21;101194.16;10248221;29;20050;-86
2023/10/26 04:47:52;;;;;;;2.30;1.60;;;;;;;-3.61;73.32;101196.19;10221660;29;20048;-87
2023/10/26 04:52:54;;;;;;;5.03;1.48;;;;;;;-3.63;73.50;101198.19;10231239;29;20062;-87
2023/10/26 04:57:56;;;;;;;4.05;1.50;;;;;;;-3.59;73.10;101199.50;10231968;29;20044;-87
2023/10/26 05:02:59;;;;;;;2.28;1.40;;;;;;;-3.58;73.04;101187.78;10214403;29;20498;-87
2023/10/26 05:08:18;;;;;;;3.30;1.20;;;;;;;-3.62;72.51;101175.72;10207306;29;20047;-87
2023/10/26 05:13:21;;;;;;;6.75;1.77;;;;;;;-3.52;72.24;101187.06;10212974;29;20070;-88
2023/10/26 05:18:23;;;;;;;5.43;1.42;;;;;;;-3.50;72.90;101170.78;10213172;29;20036;-88
2023/10/26 05:23:26;;;;;;;2.05;1.23;;;;;;;-3.56;73.02;101171.50;10197276;29;20040;-87
2023/10/26 05:28:28;;;;;;;1.83;1.50;;;;;;;-3.56;73.17;101168.81;10183354;29;20052;-88
2023/10/26 05:33:30;;;;;;;1.73;1.25;;;;;;;-3.54;72.72;101174.84;10245263;29;20051;-87
2023/10/26 05:38:33;;;;;;;2.50;1.40;;;;;;;-3.54;72.88;101164.94;10213721;29;20390;-87
2023/10/26 05:43:35;;;;;;;2.13;1.30;;;;;;;-3.59;73.11;101175.38;10242988;29;20036;-88
2023/10/26 05:48:37;;;;;;;1.90;1.70;;;;;;;-3.56;73.17;101171.50;10229072;29;20066;-87
2023/10/26 05:53:39;;;;;;;4.43;1.00;;;;;;;-3.59;73.28;101177.22;10203866;29;20422;-88
2023/10/26 05:58:43;;;;;;;2.58;1.52;;;;;;;-3.59;72.86;101171.84;10194959;29;20036;-89
2023/10/26 06:03:49;;;;;;;3.05;1.48;;;;;;;-3.62;73.00;101165.00;10183046;29;20036;-89
2023/10/26 06:08:51;;;;;;;3.83;1.60;;;;;;;-3.47;72.92;101163.25;10187912;29;20044;-88
2023/10/26 06:13:54;;;;;;;3.05;1.40;;;;;;;-3.42;72.79;101160.84;10172894;29;20044;-88
2023/10/26 06:18:59;;;;;;;4.20;1.50;;;;;;;-3.40;72.54;101166.88;10204971;29;20043;-89
2023/10/26 06:24:01;;;;;;;2.63;1.27;;;;;;;-3.32;72.66;101160.59;10187213;29;20047;-88
2023/10/26 06:29:04;;;;;;;1.85;1.30;;;;;;;-3.33;72.16;101154.41;10187210;29;20052;-88
2023/10/26 06:34:06;;;;;;;1.30;1.10;;;;;;;-3.30;72.06;101160.44;10182722;29;20446;-88
2023/10/26 06:39:09;;;;;;;2.22;1.42;;;;;;;-3.20;72.34;101137.72;10183552;29;20039;-87
2023/10/26 06:44:11;;;;;;;1.48;1.30;;;;;;;-3.06;71.82;101144.16;10184385;29;20060;-88
2023/10/26 06:49:13;;;;;;;2.72;1.50;;;;;;;-2.89;70.98;101148.38;10205473;29;20051;-87
2023/10/26 06:54:16;;;;;;;3.08;1.48;;;;;;;-2.86;71.76;101156.06;10231372;29;20047;-88
2023/10/26 06:59:19;;;;;;;2.75;1.50;;;;;;;-2.50;70.73;101147.34;10222228;29;20039;-88
2023/10/26 07:04:21;;;;;;;9.25;2.03;;;;;;;-2.56;70.88;101148.09;10224134;29;20047;-88
2023/10/26 07:09:24;;;;;;;3.55;1.50;;;;;;;-2.40;70.64;101144.41;10194930;29;20051;-88
2023/10/26 07:14:27;;;;;;;3.83;1.38;;;;;;;-2.31;70.09;101143.28;10222496;29;20051;-89
2023/10/26 07:19:29;;;;;;;3.60;2.05;;;;;;;-2.01;69.34;101138.75;10200150;29;20047;-89
2023/10/26 07:24:33;;;;;;;5.60;1.92;;;;;;;-1.71;68.75;101151.16;10198645;29;20040;-90
2023/10/26 07:29:36;;;;;;;4.13;2.10;;;;;;;-1.46;67.87;101130.09;10208097;29;20078;-89
2023/10/26 07:34:39;;;;;;;6.05;2.47;;;;;;;-0.97;66.57;101129.34;10198728;29;20058;-89
2023/10/26 07:39:41;;;;;;;2.60;2.10;;;;;;;-0.79;65.25;101123.50;10228452;29;20051;-89
2023/10/26 07:44:44;;;;;;;3.88;1.92;;;;;;;-0.78;65.53;101119.78;10223575;29;20039;-89
2023/10/26 07:49:47;;;;;;;3.95;1.90;;;;;;;-0.68;64.92;101115.72;10193405;29;20075;-88
2023/10/26 07:54:50;;;;;;;4.05;2.20;;;;;;;-0.57;64.43;101106.25;10223694;29;20071;-86
2023/10/26 07:59:52;;;;;;;8.05;2.72;;;;;;;-0.11;63.51;101097.63;10244229;29;20040;-88
2023/10/26 08:04:55;;;;;;;5.18;2.05;;;;;;;0.32;61.63;101100.06;10226675;29;20051;-83
2023/10/26 08:09:57;;;;;;;4.80;1.77;;;;;;;0.91;61.57;101086.69;10247541;29;20070;-83
2023/10/26 08:15:01;;;;;;;4.20;1.48;;;;;;;0.35;61.41;101083.44;10218688;29;20067;-83
2023/10/26 08:20:07;;;;;;;2.05;1.30;;;;;;;-0.34;62.87;101087.97;10231177;29;20314;-83
2023/10/26 08:25:09;;;;;;;3.17;1.70;;;;;;;-1.02;64.81;101081.47;10246951;29;20044;-90
2023/10/26 08:30:12;;;;;;;3.70;1.90;;;;;;;-1.40;66.45;101096.19;10216214;29;20043;-90
2023/10/26 08:35:16;;;;;;;2.83;1.10;;;;;;;-1.68;67.57;101093.44;10178575;29;20074;-89
2023/10/26 08:40:18;;;;;;;5.07;2.10;;;;;;;-1.67;67.78;101076.28;10246618;29;20040;-85
2023/10/26 08:45:23;;;;;;;2.95;1.65;;;;;;;-1.62;68.17;101081.91;10232862;29;20055;-90
2023/10/26 08:50:25;;;;;;;3.58;2.30;;;;;;;-1.67;67.69;101074.41;10220715;29;20035;-92
2023/10/26 08:55:27;;;;;;;3.90;1.63;;;;;;;-1.58;67.53;101078.63;10193607;29;20047;-87
2023/10/26 09:00:30;;;;;;;3.80;2.30;;;;;;;-1.66;68.06;101064.47;10219840;29;20067;-88
2023/10/26 09:05:33;;;;;;;4.15;1.80;;;;;;;-1.50;67.66;101069.63;10205991;29;20082;-85
2023/10/26 09:10:36;;;;;;;4.35;2.00;;;;;;;-1.57;67.21;101064.16;10228803;29;20043;-84
2023/10/26 09:15:49;;;;;;;3.83;1.80;;;;;;;-1.48;67.36;101056.81;10227769;29;20039;-85
2023/10/26 09:21:20;;;;;;;6.18;2.40;;;;;;;-1.48;67.67;101039.81;10227041;29;20133;-87
2023/10/26 09:26:22;;;;;;;4.25;2.00;;;;;;;-1.52;67.45;101045.59;10215772;29;20426;-86
2023/10/26 09:31:25;;;;;;;2.40;2.03;;;;;;;-1.67;68.21;101058.25;10225002;29;20047;-86
2023/10/26 09:36:27;;;;;;;6.32;2.55;;;;;;;-1.58;68.71;101034.75;10245400;29;20039;-86
2023/10/26 09:41:29;;;;;;;5.40;1.90;;;;;;;-1.45;68.68;101018.72;10245629;29;20043;-86
2023/10/26 09:46:31;;;;;;;2.70;1.80;;;;;;;-1.46;68.64;101011.69;10244884;29;20058;-86
2023/10/26 09:51:34;;;;;;;3.83;2.22;;;;;;;-1.47;68.90;101011.88;10209998;29;20071;-85
2023/10/26 09:56:38;;;;;;;3.85;1.70;;;;;;;-1.67;69.60;101006.31;10225886;29;20031;-86
2023/10/26 10:01:40;;;;;;;4.75;2.00;;;;;;;-1.47;70.10;100985.81;10244867;29;20054;-85
2023/10/26 10:06:52;;;;;;;4.15;1.60;;;;;;;-1.46;69.85;100987.47;10230640;29;20046;-86
2023/10/26 10:12:07;;;;;;;2.17;1.45;;;;;;;-1.56;69.97;100976.22;10225113;29;20048;-86
2023/10/26 10:17:10;;;;;;;4.00;2.10;;;;;;;-1.47;69.76;100974.19;10221133;29;20086;-87
2023/10/26 10:22:34;;;;;;;4.80;1.90;;;;;;;-1.41;69.81;100970.72;10227950;29;20046;-86
2023/10/26 10:27:59;;;;;;;4.03;2.17;;;;;;;-1.43;70.65;100970.09;10232859;29;20040;-88
2023/10/26 10:33:04;;;;;;;5.47;2.28;;;;;;;-1.43;70.83;100957.47;10224501;29;20147;-91
2023/10/26 10:38:19;;;;;;;4.28;1.90;;;;;;;-1.61;71.64;100941.78;10193820;29;20048;-91
2023/10/26 10:43:43;;;;;;;3.40;1.70;;;;;;;-1.56;72.74;100955.53;10246011;29;20043;-91
2023/10/26 10:49:05;;;;;;;3.88;1.88;;;;;;;-1.63;73.55;100937.63;10232680;29;20047;-95
2023/10/26 10:54:29;;;;;;;3.95;2.20;;;;;;;-1.62;74.04;100931.22;10234327;23;20099;-61
2023/10/26 10:59:31;;;;;;;3.78;1.60;;;;;;;-1.73;74.72;100921.84;10154318;29;20064;-69
2023/10/26 11:04:33;;;;;;;3.72;2.35;;;;;;;-1.73;75.44;100935.28;10140471;29;20048;-68
2023/10/26 11:09:39;;;;;;;5.72;3.00;;;;;;;-1.84;76.76;100938.50;10160210;29;20055;-68
2023/10/26 11:14:49;;;;;;;4.78;2.72;;;;;;;-1.84;76.81;100942.00;10162171;29;20528;-68
2023/10/26 11:19:53;;;;;;;4.97;2.25;;;;;;;-1.72;77.14;100918.13;10159973;29;20136;-68
2023/10/26 11:24:56;;;;;;;3.95;2.75;;;;;;;-1.62;77.28;100920.47;10151239;29;20041;-68
2023/10/26 11:30:05;;;;;;;5.68;2.50;;;;;;;-1.51;77.36;100917.25;10209052;23;20056;-69
2023/10/26 11:35:09;;;;;;;3.80;2.38;;;;;;;-1.48;77.30;100900.72;10213157;29;20040;-69
2023/10/26 11:40:13;;;;;;;4.35;2.83;;;;;;;-1.61;78.28;100900.59;10217927;29;20039;-69
2023/10/26 11:45:21;;;;;;;4.72;2.88;;;;;;;-1.52;78.72;100889.50;10247760;23;20055;-67
2023/10/26 11:50:27;;;;;;;5.82;3.00;;;;;;;-1.47;78.80;100880.84;10266558;28;20514;-66
2023/10/26 11:55:32;;;;;;;5.22;2.63;;;;;;;-1.37;78.97;100877.81;10271166;28;20507;-67
2023/10/26 12:00:34;;;;;;;5.00;2.90;;;;;;;-1.30;79.21;100897.50;10251504;23;20059;-67
2023/10/26 12:05:36;;;;;;;2.65;1.58;;;;;;;-1.30;79.35;100863.34;10212422;29;20047;-67
2023/10/26 12:10:40;;;;;;;5.68;3.17;;;;;;;-1.28;79.58;100855.06;10218359;29;20055;-66
2023/10/26 12:15:42;;;;;;;4.25;2.60;;;;;;;-1.24;80.34;100848.25;10286373;23;20169;-66
2023/10/26 12:20:45;;;;;;;4.25;2.80;;;;;;;-1.20;80.46;100837.94;10313392;28;20039;-66
2023/10/26 12:25:47;;;;;;;7.53;2.65;;;;;;;-1.13;80.23;100830.72;10321790;28;20039;-67
2023/10/26 12:30:50;;;;;;;6.78;2.88;;;;;;;-1.11;80.76;100832.19;10329442;23;20059;-66
2023/10/26 12:35:52;;;;;;;5.18;2.80;;;;;;;-1.05;80.58;100815.22;10300440;28;20126;-66
2023/10/26 12:40:54;;;;;;;5.13;2.88;;;;;;;-1.05;80.74;100809.81;10296704;28;20051;-66
2023/10/26 12:45:56;;;;;;;7.50;3.03;;;;;;;-0.99;80.74;100808.22;10272107;23;20055;-67
2023/10/26 12:50:58;;;;;;;5.97;2.80;;;;;;;-0.96;80.76;100797.03;10245712;29;20064;-68
2023/10/26 12:56:01;;;;;;;5.22;3.10;;;;;;;-0.93;80.25;100800.13;10228222;29;20035;-68
2023/10/26 13:01:03;;;;;;;8.48;2.50;;;;;;;-0.82;79.92;100776.34;10277441;23;20051;-61
2023/10/26 13:06:05;;;;;;;8.18;3.85;;;;;;;-0.78;79.87;100788.38;10274530;28;20051;-61
2023/10/26 13:11:08;;;;;;;6.72;3.78;;;;;;;-0.74;78.62;100774.28;10272020;29;20046;-62
2023/10/26 13:16:10;;;;;;;9.13;4.68;;;;;;;-0.70;77.56;100774.69;10324977;23;20418;-69
2023/10/26 13:21:12;;;;;;;7.03;3.70;;;;;;;-0.61;76.83;100768.09;10322107;28;20051;-69
2023/10/26 13:26:15;;;;;;;4.93;2.35;;;;;;;-0.62;76.09;100761.06;10322539;28;20051;-68
2023/10/26 13:31:17;;;;;;;5.78;2.90;;;;;;;-0.62;75.36;100755.66;10302527;23;20063;-71
2023/10/26 13:36:20;;;;;;;6.95;3.17;;;;;;;-0.55;74.01;100764.56;10248340;28;20515;-69
2023/10/26 13:41:23;;;;;;;3.85;1.80;;;;;;;-0.54;72.57;100744.66;10215566;29;20039;-71
2023/10/26 13:46:25;;;;;;;3.85;1.70;;;;;;;-0.52;72.08;100737.25;10269360;23;20062;-71
2023/10/26 13:51:27;;;;;;;2.55;1.60;;;;;;;-0.48;71.37;100751.13;10269654;28;20051;-71
2023/10/26 13:56:29;;;;;;;3.90;1.85;;;;;;;-0.53;70.84;100729.31;10265001;29;20050;-71
2023/10/26 14:01:32;;;;;;;6.57;2.03;;;;;;;-0.59;70.12;100755.25;10277407;28;20051;-69
2023/10/26 14:06:34;;;;;;;3.95;1.67;;;;;;;-0.58;69.29;100745.28;10263045;28;20043;-69
2023/10/26 14:11:36;;;;;;;1.75;1.17;;;;;;;-0.62;68.84;100734.09;10277100;29;20039;-70
2023/10/26 14:16:39;;;;;;;3.67;1.80;;;;;;;-0.65;68.62;100735.34;10277439;29;20062;-71
2023/10/26 14:21:41;;;;;;;2.30;1.48;;;;;;;-0.68;69.21;100727.69;10273034;28;20040;-71
2023/10/26 14:26:43;;;;;;;2.25;1.50;;;;;;;-0.73;69.17;100723.91;10254445;23;20040;-70
2023/10/26 14:31:45;;;;;;;1.90;1.48;;;;;;;-0.74;68.67;100727.66;10236358;29;20044;-70
2023/10/26 14:36:47;;;;;;;1.90;1.33;;;;;;;-0.80;69.25;100717.72;10226968;29;20055;-69
2023/10/26 14:41:50;;;;;;;3.35;1.65;;;;;;;-0.79;69.02;100712.09;10231505;29;20035;-69
2023/10/26 14:46:52;;;;;;;4.07;1.55;;;;;;;-0.80;68.72;100707.75;10238335;29;20039;-68
2023/10/26 14:51:54;;;;;;;3.58;1.80;;;;;;;-0.83;68.64;100716.25;10224664;29;20067;-69
2023/10/26 14:56:57;;;;;;;4.05;2.10;;;;;;;-0.88;68.92;100715.19;10232300;29;20051;-69
2023/10/26 15:02:00;;;;;;;2.85;1.80;;;;;;;-0.88;68.79;100702.56;10227651;29;20051;-69
2023/10/26 15:07:03;;;;;;;2.38;1.42;;;;;;;-0.91;68.78;100702.97;10163402;29;20047;-69
2023/10/26 15:12:05;;;;;;;1.83;1.60;;;;;;;-0.92;69.19;100707.53;10239856;23;20058;-66
2023/10/26 15:17:07;;;;;;;6.63;2.42;;;;;;;-0.94;68.87;100706.06;10229677;29;20051;-67
2023/10/26 15:22:10;;;;;;;2.75;1.98;;;;;;;-0.99;68.89;100720.16;10194611;29;20044;-65
2023/10/26 15:27:12;;;;;;;2.17;1.58;;;;;;;-1.00;69.00;100704.19;10187677;23;20056;-63
2023/10/26 15:32:17;;;;;;;4.65;1.83;;;;;;;-1.00;69.10;100698.81;10194187;29;20062;-63
2023/10/26 15:37:21;;;;;;;1.65;1.25;;;;;;;-1.06;69.34;100689.66;10170680;29;20051;-63
2023/10/26 15:42:23;;;;;;;4.10;1.65;;;;;;;-1.05;69.20;100718.25;10202201;23;20052;-73
2023/10/26 15:47:26;;;;;;;2.38;1.45;;;;;;;-1.11;69.97;100697.53;10197673;29;20054;-73
2023/10/26 15:52:28;;;;;;;2.17;1.48;;;;;;;-1.15;69.55;100693.59;10200734;29;20044;-73
2023/10/26 15:57:32;;;;;;;4.28;1.92;;;;;;;-1.16;69.29;100691.13;10282899;23;20055;-69
2023/10/26 16:02:36;;;;;;;8.18;1.90;;;;;;;-1.18;69.77;100666.25;10273187;29;20046;-69
2023/10/26 16:07:38;;;;;;;2.67;1.58;;;;;;;-1.24;69.87;100684.03;10263469;29;20039;-69
2023/10/26 16:12:40;;;;;;;3.85;1.30;;;;;;;-1.23;69.47;100664.16;10279076;29;20051;-69
2023/10/26 16:17:42;;;;;;;3.13;1.30;;;;;;;-1.24;69.37;100678.66;10267673;29;20545;-69
2023/10/26 16:22:44;;;;;;;4.65;1.90;;;;;;;-1.27;69.11;100671.81;10274620;29;20039;-69
2023/10/26 16:27:47;;;;;;;4.55;1.90;;;;;;;-1.34;69.26;100665.59;10283286;29;20047;-69
2023/10/26 16:32:49;;;;;;;3.15;1.60;;;;;;;-1.35;69.73;100663.09;10282261;29;20063;-69
2023/10/26 16:37:51;;;;;;;1.00;0.80;;;;;;;-1.35;69.09;100671.19;10277066;29;20071;-69
2023/10/26 16:42:55;;;;;;;2.88;1.60;;;;;;;-1.40;69.65;100661.00;10279735;29;20043;-69
2023/10/26 16:47:57;;;;;;;3.60;1.48;;;;;;;-1.44;70.09;100653.53;10279442;29;20035;-69
2023/10/26 16:53:00;;;;;;;2.65;1.55;;;;;;;-1.49;69.87;100661.41;10283120;29;20043;-69
2023/10/26 16:58:03;;;;;;;2.28;1.33;;;;;;;-1.53;70.24;100656.44;10280017;29;20419;-69
2023/10/26 17:03:05;;;;;;;2.78;1.50;;;;;;;-1.57;70.08;100676.66;10280072;29;20035;-69
2023/10/26 17:08:07;;;;;;;1.60;1.50;;;;;;;-1.61;69.76;100645.00;10282427;29;20043;-70
2023/10/26 17:13:10;;;;;;;4.68;1.55;;;;;;;-1.65;70.26;100641.88;10260339;23;20043;-69
2023/10/26 17:18:14;;;;;;;3.08;1.95;;;;;;;-1.65;70.35;100654.50;10255002;29;20040;-68
2023/10/26 17:23:17;;;;;;;4.50;1.42;;;;;;;-1.70;70.45;100655.13;10244659;29;20048;-67
2023/10/26 17:28:20;;;;;;;1.95;1.50;;;;;;;-1.74;70.01;100669.97;10279886;23;20566;-66
2023/10/26 17:33:22;;;;;;;4.13;1.85;;;;;;;-1.76;70.88;100642.44;10283067;28;20047;-64
2023/10/26 17:38:25;;;;;;;4.15;1.70;;;;;;;-1.77;70.43;100661.47;10295480;23;20036;-68
2023/10/26 17:43:29;;;;;;;3.50;2.63;;;;;;;-1.83;71.05;100638.91;10229349;29;20060;-69
2023/10/26 17:48:32;;;;;;;2.63;1.55;;;;;;;-1.82;70.89;100627.13;10269425;29;20059;-69
2023/10/26 17:53:37;;;;;;;1.98;1.50;;;;;;;-1.86;71.01;100625.88;10265331;29;20036;-70
2023/10/26 17:58:41;;;;;;;2.45;1.38;;;;;;;-1.89;71.11;100637.03;10245743;23;20055;-67
2023/10/26 18:03:44;;;;;;;2.75;1.60;;;;;;;-1.93;71.24;100639.28;10229663;29;20047;-64
2023/10/26 18:08:46;;;;;;;2.72;1.70;;;;;;;-1.97;70.79;100634.50;10218411;29;20044;-64
2023/10/26 18:13:48;;;;;;;3.17;1.80;;;;;;;-1.99;70.71;100640.06;10267982;23;20051;-68
2023/10/26 18:18:51;;;;;;;4.20;1.80;;;;;;;-2.00;70.81;100633.03;10281865;29;20140;-70
2023/10/26 18:23:54;;;;;;;2.83;1.60;;;;;;;-1.98;71.17;100632.84;10262697;29;20047;-68
2023/10/26 18:28:57;;;;;;;6.25;2.45;;;;;;;-2.10;71.23;100621.81;10271381;23;20075;-72
2023/10/26 18:33:59;;;;;;;3.53;1.65;;;;;;;-2.07;71.41;100615.25;10251367;29;20043;-75
2023/10/26 18:39:03;;;;;;;2.38;1.20;;;;;;;-2.13;71.38;100612.28;10229971;29;20039;-72
2023/10/26 18:44:05;;;;;;;2.38;1.35;;;;;;;-2.09;71.42;100614.56;10273738;23;20047;-64
2023/10/26 18:49:08;;;;;;;4.50;2.38;;;;;;;-2.13;71.37;100611.47;10274342;28;20035;-64
2023/10/26 18:54:10;;;;;;;3.47;1.90;;;;;;;-2.16;71.35;100601.94;10278672;28;20521;-64
2023/10/26 18:59:16;;;;;;;3.13;1.55;;;;;;;-2.16;71.86;100601.13;10266948;28;20050;-67
2023/10/26 19:04:19;;;;;;;2.67;1.77;;;;;;;-2.22;71.46;100608.13;10275807;28;20054;-65
2023/10/26 19:09:22;;;;;;;1.88;1.38;;;;;;;-2.27;71.42;100589.06;10265803;28;20065;-64
2023/10/26 19:14:25;;;;;;;2.70;1.65;;;;;;;-2.25;71.45;100591.56;10270343;28;20066;-64
2023/10/26 19:19:28;;;;;;;2.42;1.60;;;;;;;-2.30;72.05;100594.00;10267404;28;20043;-65
2023/10/26 19:24:31;;;;;;;3.45;1.92;;;;;;;-2.32;71.96;100588.81;10274677;28;20035;-65
2023/10/26 19:29:33;;;;;;;1.67;1.05;;;;;;;-2.36;72.17;100592.94;10284634;23;20446;-67
2023/10/26 19:34:36;;;;;;;3.85;1.17;;;;;;;-2.36;72.12;100589.44;10247706;28;20039;-67
2023/10/26 19:39:39;;;;;;;3.08;1.83;;;;;;;-2.37;72.80;100579.72;10269303;29;20050;-68
2023/10/26 19:44:46;;;;;;;3.20;1.67;;;;;;;-2.44;72.48;100566.22;10300190;23;20066;-85
2023/10/26 19:49:48;;;;;;;3.60;1.33;;;;;;;-2.42;72.38;100569.56;10284351;28;20679;-84
2023/10/26 19:54:51;;;;;;;3.10;1.60;;;;;;;-2.47;72.53;100558.56;10276445;29;20054;-84
2023/10/26 19:59:53;;;;;;;3.10;1.67;;;;;;;-2.52;73.01;100559.16;10278838;29;20043;-82
2023/10/26 20:04:55;;;;;;;1.60;1.45;;;;;;;-2.50;73.25;100559.78;10294626;29;20043;-86
2023/10/26 20:09:58;;;;;;;2.95;1.40;;;;;;;-2.53;72.67;100560.19;10261627;29;20046;-82
2023/10/26 20:15:00;;;;;;;3.13;1.30;;;;;;;-2.56;72.78;100567.81;10276191;29;20043;-82
2023/10/26 20:20:06;;;;;;;4.40;1.55;;;;;;;-2.60;73.40;100567.41;10292469;29;20114;-84
2023/10/26 20:25:09;;;;;;;2.38;1.50;;;;;;;-2.62;73.23;100555.16;10257902;28;20241;-83
2023/10/26 20:30:12;;;;;;;3.30;1.50;;;;;;;-2.64;73.20;100547.31;10242606;29;20036;-82
2023/10/26 20:35:19;;;;;;;2.00;1.55;;;;;;;-2.66;73.52;100535.09;10226282;29;20126;-82
2023/10/26 20:40:21;;;;;;;2.03;1.50;;;;;;;-2.66;73.80;100538.63;10229368;29;20036;-82
2023/10/26 20:45:25;;;;;;;1.98;1.27;;;;;;;-2.66;73.89;100540.47;10227621;29;20059;-83
2023/10/26 20:50:28;;;;;;;1.70;1.30;;;;;;;-2.70;73.81;100531.16;10232533;29;20050;-82
2023/10/26 20:55:30;;;;;;;2.33;1.52;;;;;;;-2.70;73.69;100531.16;10212955;29;20077;-84
2023/10/26 21:00:33;;;;;;;4.55;1.48;;;;;;;-2.73;74.14;100524.34;10213397;29;20070;-83
2023/10/26 21:05:35;;;;;;;3.08;1.45;;;;;;;-2.74;74.16;100515.44;10197966;29;20032;-85
2023/10/26 21:10:37;;;;;;;4.40;1.17;;;;;;;-2.71;74.20;100494.59;10214266;29;20391;-85
2023/10/26 21:15:39;;;;;;;7.38;1.77;;;;;;;-2.79;73.93;100515.19;10228342;29;20039;-85
2023/10/26 21:20:41;;;;;;;4.40;1.15;;;;;;;-2.77;73.79;100497.06;10228027;29;20031;-86
2023/10/26 21:25:44;;;;;;;3.92;1.80;;;;;;;-2.82;74.41;100510.22;10209919;29;20043;-87
2023/10/26 21:30:46;;;;;;;1.20;1.10;;;;;;;-2.89;74.56;100489.72;10240070;29;20058;-83
2023/10/26 21:35:49;;;;;;;3.35;1.40;;;;;;;-2.86;74.68;100492.03;10227501;29;20055;-85
2023/10/26 21:40:51;;;;;;;2.90;1.15;;;;;;;-2.90;74.45;100480.84;10245453;29;20047;-85
2023/10/26 21:45:53;;;;;;;2.03;1.10;;;;;;;-2.87;74.60;100493.88;10226239;29;20044;-85
2023/10/26 21:50:55;;;;;;;3.67;1.42;;;;;;;-2.86;74.78;100482.09;10240896;29;20043;-83
2023/10/26 21:55:58;;;;;;;2.20;1.30;;;;;;;-2.87;74.51;100491.19;10225549;29;20063;-85
2023/10/26 22:01:01;;;;;;;2.20;1.13;;;;;;;-2.84;74.79;100484.59;10241094;29;20036;-88
2023/10/26 22:06:03;;;;;;;2.83;1.08;;;;;;;-2.88;74.50;100478.78;10223782;29;20046;-85
2023/10/26 22:11:06;;;;;;;2.35;1.15;;;;;;;-2.88;74.59;100480.66;10204916;29;20527;-80
2023/10/26 22:16:08;;;;;;;1.60;1.38;;;;;;;-2.86;74.48;100462.50;10241967;29;20039;-82
2023/10/26 22:21:10;;;;;;;2.65;1.20;;;;;;;-2.89;74.35;100471.78;10205016;29;20039;-86
2023/10/26 22:26:12;;;;;;;2.25;1.10;;;;;;;-2.94;74.63;100450.06;10224522;29;20044;-86
2023/10/26 22:31:15;;;;;;;2.30;1.40;;;;;;;-2.96;74.45;100465.50;10236652;29;20518;-86
2023/10/26 22:36:17;;;;;;;2.17;1.33;;;;;;;-2.94;74.62;100454.59;10221759;29;20514;-87
2023/10/26 22:41:23;;;;;;;1.88;1.13;;;;;;;-2.96;74.79;100460.16;10241729;29;20043;-86
2023/10/26 22:46:25;;;;;;;2.08;1.20;;;;;;;-2.96;74.75;100448.56;10238234;29;20268;-89
2023/10/26 22:51:28;;;;;;;1.25;0.90;;;;;;;-3.01;74.82;100435.75;10203986;29;20051;-86
2023/10/26 22:56:31;;;;;;;2.22;0.80;;;;;;;-3.03;74.76;100430.59;10223116;29;20047;-86
2023/10/26 23:01:34;;;;;;;1.65;1.15;;;;;;;-2.98;75.14;100438.03;10249178;29;20043;-85
2023/10/26 23:06:37;;;;;;;2.05;1.40;;;;;;;-3.00;74.40;100418.63;10225065;29;20077;-83
2023/10/26 23:11:39;;;;;;;1.77;1.25;;;;;;;-3.04;74.67;100409.31;10243711;29;20403;-85
2023/10/26 23:16:47;;;;;;;2.60;1.23;;;;;;;-3.03;74.56;100419.03;10226243;29;20047;-84